createdAt,value
2023-04-24T00:01:03.432Z,63.40
2023-04-24T00:03:30.255Z,63.40
2023-04-24T00:05:57.040Z,63.40
2023-04-24T00:08:24.733Z,63.50
2023-04-24T00:10:53.044Z,63.60
2023-04-24T00:13:19.824Z,63.50
2023-04-24T00:15:46.542Z,63.50
2023-04-24T00:18:13.207Z,63.40
2023-04-24T00:20:40.601Z,63.50
2023-04-24T00:23:07.400Z,63.50
2023-04-24T00:25:34.093Z,63.50
2023-04-24T00:28:00.818Z,63.60
2023-04-24T00:30:27.519Z,63.50
2023-04-24T00:32:54.147Z,63.30
2023-04-24T00:35:21.061Z,63.30
2023-04-24T00:37:47.856Z,63.30
2023-04-24T00:40:14.651Z,63.30
2023-04-24T00:42:41.929Z,63.20
2023-04-24T00:45:08.864Z,63.10
2023-04-24T00:47:35.615Z,63.00
2023-04-24T00:50:04.068Z,62.80
2023-04-24T00:52:33.090Z,62.70
2023-04-24T00:54:59.884Z,62.60
2023-04-24T00:57:27.208Z,62.50
2023-04-24T00:59:54.472Z,62.40
2023-04-24T01:02:22.388Z,62.40
2023-04-24T01:04:51.769Z,62.50
2023-04-24T01:07:21.807Z,62.50
2023-04-24T01:09:49.962Z,62.60
2023-04-24T01:12:16.749Z,62.50
2023-04-24T01:14:43.888Z,62.50
2023-04-24T01:17:10.558Z,62.60
2023-04-24T01:19:38.107Z,62.60
2023-04-24T01:22:12.751Z,62.80
2023-04-24T01:24:39.777Z,63.00
2023-04-24T01:27:06.726Z,63.10
2023-04-24T01:29:33.577Z,63.10
2023-04-24T01:32:00.632Z,63.20
2023-04-24T01:34:27.508Z,63.20
2023-04-24T01:36:54.686Z,63.20
2023-04-24T01:39:21.775Z,63.30
2023-04-24T01:41:48.498Z,63.30
2023-04-24T01:44:15.585Z,63.30
2023-04-24T01:46:42.549Z,63.30
2023-04-24T01:49:09.342Z,63.40
2023-04-24T01:51:35.974Z,63.30
2023-04-24T01:54:02.570Z,63.30
2023-04-24T01:56:31.271Z,63.30
2023-04-24T01:58:58.786Z,63.40
2023-04-24T02:01:26.119Z,63.40
2023-04-24T02:03:52.897Z,63.50
2023-04-24T02:06:19.590Z,63.50
2023-04-24T02:08:46.276Z,63.50
2023-04-24T02:11:12.869Z,63.50
2023-04-24T02:13:39.492Z,63.60
2023-04-24T02:16:06.236Z,63.70
2023-04-24T02:18:32.872Z,63.80
2023-04-24T02:20:59.461Z,63.80
2023-04-24T02:23:26.422Z,63.90
2023-04-24T02:25:54.189Z,63.90
2023-04-24T02:28:20.969Z,63.90
2023-04-24T02:30:47.586Z,63.90
2023-04-24T02:33:14.312Z,64.00
2023-04-24T02:35:40.918Z,63.90
2023-04-24T02:38:07.548Z,64.00
2023-04-24T02:40:34.445Z,64.00
2023-04-24T02:43:01.155Z,64.00
2023-04-24T02:45:27.773Z,64.00
2023-04-24T02:47:54.433Z,64.00
2023-04-24T02:50:21.181Z,64.10
2023-04-24T02:52:48.000Z,64.00
2023-04-24T02:55:14.804Z,64.10
2023-04-24T02:57:41.386Z,64.10
2023-04-24T03:00:08.502Z,64.20
2023-04-24T03:02:35.281Z,64.20
2023-04-24T03:05:03.313Z,64.30
2023-04-24T03:07:30.006Z,64.20
2023-04-24T03:09:58.765Z,64.20
2023-04-24T03:12:25.469Z,64.20
2023-04-24T03:14:52.096Z,64.20
2023-04-24T03:17:18.771Z,64.30
2023-04-24T03:19:45.655Z,64.30
2023-04-24T03:22:13.222Z,64.40
2023-04-24T03:24:40.201Z,64.30
2023-04-24T03:27:06.846Z,64.30
2023-04-24T03:29:33.430Z,64.40
2023-04-24T03:32:00.240Z,64.40
2023-04-24T03:34:26.992Z,64.50
2023-04-24T03:36:53.754Z,64.60
2023-04-24T03:39:20.426Z,64.70
2023-04-24T03:41:47.037Z,64.70
2023-04-24T03:44:13.636Z,64.70
2023-04-24T03:46:40.299Z,64.70
2023-04-24T03:49:07.026Z,64.70
2023-04-24T03:51:33.664Z,64.80
2023-04-24T03:54:00.309Z,64.90
2023-04-24T03:56:26.954Z,64.90
2023-04-24T03:58:53.552Z,65.00
2023-04-24T04:01:21.674Z,64.90
2023-04-24T04:03:48.874Z,64.90
2023-04-24T04:06:15.656Z,64.90
2023-04-24T04:08:42.336Z,64.90
2023-04-24T04:11:09.070Z,64.80
2023-04-24T04:13:35.734Z,64.80
2023-04-24T04:16:02.463Z,64.80
2023-04-24T04:18:29.117Z,64.90
2023-04-24T04:20:55.759Z,64.90
2023-04-24T04:23:22.394Z,64.90
2023-04-24T04:25:49.073Z,64.90
2023-04-24T04:28:16.398Z,64.90
2023-04-24T04:30:43.409Z,64.90
2023-04-24T04:33:11.597Z,64.90
2023-04-24T04:35:38.259Z,64.80
2023-04-24T04:38:05.638Z,64.80
2023-04-24T04:40:32.316Z,64.80
2023-04-24T04:42:59.203Z,65.00
2023-04-24T04:45:27.916Z,65.30
2023-04-24T04:47:56.072Z,65.70
2023-04-24T04:50:23.890Z,66.00
2023-04-24T04:52:50.803Z,66.20
2023-04-24T04:55:17.481Z,66.50
2023-04-24T04:57:44.115Z,66.90
2023-04-24T05:00:12.076Z,67.10
2023-04-24T05:02:39.956Z,67.30
2023-04-24T05:05:07.395Z,67.40
2023-04-24T05:07:34.277Z,67.60
2023-04-24T05:10:01.115Z,67.80
2023-04-24T05:12:28.196Z,67.70
2023-04-24T05:14:54.840Z,67.90
2023-04-24T05:17:21.645Z,68.20
2023-04-24T05:19:49.207Z,68.30
2023-04-24T05:22:16.100Z,68.50
2023-04-24T05:24:43.326Z,68.50
2023-04-24T05:27:09.982Z,68.40
2023-04-24T05:29:36.645Z,68.60
2023-04-24T05:32:03.320Z,68.40
2023-04-24T05:34:30.075Z,68.30
2023-04-24T05:36:56.778Z,68.20
2023-04-24T05:39:23.425Z,67.90
2023-04-24T05:41:50.049Z,67.70
2023-04-24T05:44:16.624Z,67.40
2023-04-24T05:46:43.335Z,67.40
2023-04-24T05:49:10.071Z,67.30
2023-04-24T05:51:36.780Z,67.20
2023-04-24T05:54:04.117Z,67.30
2023-04-24T05:56:30.862Z,67.20
2023-04-24T05:58:57.507Z,66.90
2023-04-24T06:01:24.359Z,66.50
2023-04-24T06:03:51.065Z,66.40
2023-04-24T06:06:17.865Z,65.80
2023-04-24T06:08:45.193Z,65.40
2023-04-24T06:11:12.216Z,64.70
2023-04-24T06:13:38.869Z,63.50
2023-04-24T06:16:06.261Z,62.70
2023-04-24T06:18:33.019Z,61.80
2023-04-24T06:20:59.595Z,61.20
2023-04-24T06:23:26.326Z,60.80
2023-04-24T06:25:52.928Z,59.80
2023-04-24T06:28:19.763Z,59.20
2023-04-24T06:30:46.478Z,58.70
2023-04-24T06:33:21.034Z,58.20
2023-04-24T06:35:49.009Z,58.00
2023-04-24T06:38:16.960Z,57.20
2023-04-24T06:40:46.369Z,56.20
2023-04-24T06:43:13.276Z,55.50
2023-04-24T06:45:40.836Z,55.00
2023-04-24T06:48:07.709Z,54.90
2023-04-24T06:50:34.402Z,54.40
2023-04-24T06:53:01.125Z,53.80
2023-04-24T06:55:27.776Z,53.70
2023-04-24T06:57:54.428Z,53.90
2023-04-24T07:00:21.322Z,52.90
2023-04-24T07:02:48.019Z,52.30
2023-04-24T07:05:16.276Z,52.30
2023-04-24T07:07:43.793Z,52.00
2023-04-24T07:10:10.556Z,52.20
2023-04-24T07:12:37.171Z,51.50
2023-04-24T07:15:04.251Z,51.10
2023-04-24T07:17:30.940Z,51.00
2023-04-24T07:19:57.536Z,50.30
2023-04-24T07:22:24.269Z,49.60
2023-04-24T07:24:50.862Z,49.30
2023-04-24T07:27:17.663Z,49.40
2023-04-24T07:29:44.479Z,49.40
2023-04-24T07:32:11.454Z,48.90
2023-04-24T07:34:38.132Z,49.50
2023-04-24T07:37:05.043Z,49.90
2023-04-24T07:39:31.825Z,49.80
2023-04-24T07:42:00.377Z,49.50
2023-04-24T07:44:27.222Z,50.10
2023-04-24T07:46:54.382Z,50.20
2023-04-24T07:49:21.039Z,50.40
2023-04-24T07:51:47.665Z,50.20
2023-04-24T07:54:14.397Z,50.30
2023-04-24T07:56:43.794Z,50.30
2023-04-24T07:59:11.193Z,50.80
2023-04-24T08:01:38.565Z,51.40
2023-04-24T08:04:05.771Z,51.50
2023-04-24T08:06:32.992Z,51.50
2023-04-24T08:09:00.417Z,51.30
2023-04-24T08:11:27.562Z,51.40
2023-04-24T08:13:55.533Z,51.40
2023-04-24T08:16:22.293Z,51.50
2023-04-24T08:18:49.003Z,51.50
2023-04-24T08:21:18.142Z,51.70
2023-04-24T08:23:45.092Z,51.70
2023-04-24T08:26:12.874Z,51.80
2023-04-24T08:28:39.948Z,50.90
2023-04-24T08:31:06.617Z,50.60
2023-04-24T08:33:35.585Z,50.80
2023-04-24T08:36:07.059Z,50.30
2023-04-24T08:38:34.679Z,49.60
2023-04-24T08:41:02.807Z,49.30
2023-04-24T08:43:29.678Z,48.50
2023-04-24T08:45:57.708Z,47.70
2023-04-24T08:48:30.953Z,46.90
2023-04-24T08:51:00.231Z,46.40
2023-04-24T08:53:27.808Z,46.20
2023-04-24T08:55:56.337Z,46.10
2023-04-24T08:58:26.173Z,46.50
2023-04-24T09:00:53.136Z,48.10
2023-04-24T09:03:21.780Z,48.90
2023-04-24T09:05:50.607Z,50.00
2023-04-24T09:08:20.902Z,51.30
2023-04-24T09:10:49.811Z,52.20
2023-04-24T09:13:19.093Z,52.60
2023-04-24T09:15:45.761Z,52.70
2023-04-24T09:18:12.392Z,53.10
2023-04-24T09:21:04.830Z,53.50
2023-04-24T09:23:32.919Z,54.40
2023-04-24T09:26:01.313Z,54.50
2023-04-24T09:28:32.964Z,54.70
2023-04-24T09:31:07.858Z,55.10
2023-04-24T09:33:35.454Z,55.20
2023-04-24T09:36:03.340Z,55.30
2023-04-24T09:38:37.995Z,54.20
2023-04-24T09:41:07.752Z,54.50
2023-04-24T09:43:36.017Z,53.40
2023-04-24T09:46:07.902Z,52.80
2023-04-24T09:48:38.714Z,52.90
2023-04-24T09:51:08.114Z,52.10
2023-04-24T09:53:34.785Z,52.10
2023-04-24T09:56:09.103Z,50.60
2023-04-24T09:58:37.324Z,49.50
2023-04-24T10:01:04.397Z,48.90
2023-04-24T10:03:32.140Z,48.20
2023-04-24T10:06:02.997Z,47.70
2023-04-24T10:08:37.641Z,47.00
2023-04-24T10:11:04.638Z,47.00
2023-04-24T10:13:32.530Z,47.40
2023-04-24T10:16:01.491Z,47.00
2023-04-24T10:18:28.451Z,47.10
2023-04-24T10:20:56.067Z,46.80
2023-04-24T10:23:24.189Z,47.20
2023-04-24T10:25:52.430Z,48.00
2023-04-24T10:28:20.358Z,47.70
2023-04-24T10:30:47.417Z,47.30
2023-04-24T10:33:15.627Z,47.30
2023-04-24T10:35:49.926Z,47.10
2023-04-24T10:38:22.766Z,47.40
2023-04-24T10:40:49.528Z,47.40
2023-04-24T10:43:19.535Z,46.90
2023-04-24T10:46:04.072Z,46.70
2023-04-24T10:48:31.755Z,46.40
2023-04-24T10:50:58.349Z,46.20
2023-04-24T10:53:29.129Z,46.10
2023-04-24T10:56:07.470Z,45.90
2023-04-24T10:58:47.053Z,45.90
2023-04-24T11:01:27.480Z,45.80
2023-04-24T11:04:00.424Z,45.90
2023-04-24T11:06:37.884Z,45.60
2023-04-24T11:09:08.653Z,46.30
2023-04-24T11:11:37.995Z,46.00
2023-04-24T11:14:07.682Z,46.20
2023-04-24T11:16:37.118Z,46.60
2023-04-24T11:19:08.356Z,47.10
2023-04-24T11:21:46.611Z,47.40
2023-04-24T11:24:49.834Z,47.80
2023-04-24T11:27:18.976Z,48.10
2023-04-24T11:29:58.469Z,48.30
2023-04-24T11:32:27.579Z,48.00
2023-04-24T11:35:05.274Z,47.40
2023-04-24T11:37:37.916Z,47.20
2023-04-24T11:40:07.082Z,47.00
2023-04-24T11:42:38.774Z,47.00
2023-04-24T11:45:13.736Z,47.10
2023-04-24T11:47:41.151Z,47.30
2023-04-24T11:50:10.875Z,47.10
2023-04-24T11:52:42.776Z,47.20
2023-04-24T11:55:23.914Z,47.20
2023-04-24T11:57:54.109Z,47.30
2023-04-24T12:00:27.445Z,47.40
2023-04-24T12:03:08.514Z,46.80
2023-04-24T12:05:37.126Z,46.60
2023-04-24T12:08:04.366Z,46.40
2023-04-24T12:10:32.855Z,46.40
2023-04-24T12:13:01.310Z,46.20
2023-04-24T12:15:28.874Z,46.90
2023-04-24T12:17:56.871Z,47.10
2023-04-24T12:20:28.182Z,46.90
2023-04-24T12:22:57.442Z,46.60
2023-04-24T12:25:26.549Z,46.00
2023-04-24T12:27:56.082Z,45.80
2023-04-24T12:30:29.543Z,45.40
2023-04-24T12:32:59.172Z,45.20
2023-04-24T12:35:28.890Z,44.70
2023-04-24T12:37:55.724Z,44.20
2023-04-24T12:40:26.119Z,43.90
2023-04-24T12:42:52.973Z,44.00
2023-04-24T12:45:20.287Z,44.30
2023-04-24T12:47:47.409Z,44.00
2023-04-24T12:50:15.752Z,44.00
2023-04-24T12:52:43.680Z,44.10
2023-04-24T12:55:12.805Z,44.20
2023-04-24T12:57:40.820Z,44.50
2023-04-24T13:00:08.771Z,44.90
2023-04-24T13:02:35.812Z,44.80
2023-04-24T13:05:03.231Z,45.10
2023-04-24T13:07:29.863Z,45.10
2023-04-24T13:09:57.817Z,44.30
2023-04-24T13:12:27.506Z,44.50
2023-04-24T13:14:54.694Z,44.20
2023-04-24T13:17:21.472Z,44.20
2023-04-24T13:19:51.090Z,44.20
2023-04-24T13:22:19.646Z,44.20
2023-04-24T13:24:46.509Z,44.60
2023-04-24T13:27:13.179Z,44.70
2023-04-24T13:29:39.767Z,45.10
2023-04-24T13:32:06.893Z,45.40
2023-04-24T13:34:33.838Z,45.70
2023-04-24T13:37:00.631Z,45.80
2023-04-24T13:39:27.863Z,45.90
2023-04-24T13:41:54.812Z,45.90
2023-04-24T13:44:22.669Z,45.70
2023-04-24T13:46:52.711Z,45.80
2023-04-24T13:49:19.873Z,45.80
2023-04-24T13:51:46.857Z,45.50
2023-04-24T13:54:13.800Z,45.50
2023-04-24T13:56:41.594Z,45.50
2023-04-24T13:59:08.617Z,45.30
2023-04-24T14:01:35.640Z,44.90
2023-04-24T14:04:02.378Z,44.20
2023-04-24T14:06:29.116Z,44.10
2023-04-24T14:08:55.729Z,44.00
2023-04-24T14:11:23.218Z,43.80
2023-04-24T14:13:50.132Z,43.40
2023-04-24T14:16:16.887Z,43.40
2023-04-24T14:18:43.566Z,43.20
2023-04-24T14:21:10.458Z,43.40
2023-04-24T14:23:37.056Z,43.60
2023-04-24T14:26:03.718Z,43.90
2023-04-24T14:28:30.394Z,44.00
2023-04-24T14:30:57.153Z,43.60
2023-04-24T14:33:23.808Z,43.70
2023-04-24T14:35:50.560Z,43.80
2023-04-24T14:38:17.217Z,43.90
2023-04-24T14:43:13.334Z,43.60
2023-04-24T14:45:42.570Z,43.20
2023-04-24T14:48:09.694Z,43.30
2023-04-24T14:50:36.898Z,43.10
2023-04-24T14:53:03.662Z,43.30
2023-04-24T14:55:30.573Z,43.20
2023-04-24T14:57:57.259Z,43.20
2023-04-24T15:00:26.999Z,43.30
2023-04-24T15:02:53.782Z,43.20
2023-04-24T15:05:20.961Z,43.20
2023-04-24T15:07:47.788Z,43.30
2023-04-24T15:10:14.427Z,43.40
2023-04-24T15:12:41.180Z,43.60
2023-04-24T15:15:08.939Z,43.30
2023-04-24T15:17:35.785Z,43.30
2023-04-24T15:20:03.804Z,43.20
2023-04-24T15:22:30.561Z,43.20
2023-04-24T15:24:57.171Z,43.10
2023-04-24T15:27:23.903Z,43.20
2023-04-24T15:29:50.623Z,42.90
2023-04-24T15:32:17.325Z,43.30
2023-04-24T15:34:44.639Z,43.40
2023-04-24T15:37:12.685Z,43.50
2023-04-24T15:39:39.304Z,43.60
2023-04-24T15:42:06.034Z,43.60
2023-04-24T15:44:32.650Z,43.60
2023-04-24T15:47:01.653Z,43.80
2023-04-24T15:49:28.324Z,44.10
2023-04-24T15:51:54.918Z,44.00
2023-04-24T15:54:21.652Z,44.10
2023-04-24T15:56:50.833Z,44.30
2023-04-24T15:59:18.579Z,45.00
2023-04-24T16:01:45.495Z,45.60
2023-04-24T16:04:12.290Z,45.90
2023-04-24T16:06:39.047Z,46.70
2023-04-24T16:09:05.934Z,47.70
2023-04-24T16:11:33.705Z,48.50
2023-04-24T16:14:00.626Z,49.20
2023-04-24T16:16:27.886Z,49.90
2023-04-24T16:18:54.605Z,50.20
2023-04-24T16:21:21.268Z,50.40
2023-04-24T16:23:47.977Z,50.10
2023-04-24T16:26:15.563Z,50.40
2023-04-24T16:28:43.315Z,50.80
2023-04-24T16:31:10.357Z,51.10
2023-04-24T16:33:37.103Z,51.20
2023-04-24T16:36:05.816Z,51.30
2023-04-24T16:38:33.746Z,51.40
2023-04-24T16:41:00.411Z,51.60
2023-04-24T16:43:27.253Z,51.80
2023-04-24T16:45:54.435Z,51.90
2023-04-24T16:48:21.121Z,52.00
2023-04-24T16:50:48.250Z,52.00
2023-04-24T16:53:14.922Z,52.10
2023-04-24T16:55:41.601Z,52.20
2023-04-24T16:58:08.228Z,52.00
2023-04-24T17:00:36.012Z,52.00
2023-04-24T17:03:02.795Z,52.00
2023-04-24T17:05:29.655Z,52.00
2023-04-24T17:07:56.519Z,52.00
2023-04-24T17:10:23.199Z,52.00
2023-04-24T17:12:49.819Z,52.00
2023-04-24T17:15:16.479Z,52.00
2023-04-24T17:17:44.268Z,52.10
2023-04-24T17:20:21.290Z,52.00
2023-04-24T17:22:48.507Z,51.90
2023-04-24T17:25:15.758Z,52.10
2023-04-24T17:27:42.369Z,52.10
2023-04-24T17:30:09.503Z,52.10
2023-04-24T17:32:36.192Z,52.20
2023-04-24T17:35:03.499Z,52.50
2023-04-24T17:37:30.187Z,52.40
2023-04-24T17:39:56.818Z,52.50
2023-04-24T17:42:23.407Z,52.70
2023-04-24T17:44:49.990Z,52.90
2023-04-24T17:47:16.684Z,53.00
2023-04-24T17:49:43.685Z,53.10
2023-04-24T17:52:11.683Z,53.20
2023-04-24T17:54:38.340Z,53.30
2023-04-24T17:57:05.036Z,53.50
2023-04-24T18:02:25.727Z,53.70
2023-04-24T18:04:54.943Z,53.40
2023-04-24T18:07:21.930Z,53.80
2023-04-24T18:09:48.527Z,54.00
2023-04-24T18:12:15.223Z,54.20
2023-04-24T18:14:41.887Z,54.50
2023-04-24T18:17:08.954Z,54.80
2023-04-24T18:19:35.673Z,55.00
2023-04-24T18:22:02.493Z,55.30
2023-04-24T18:24:29.139Z,55.40
2023-04-24T18:26:55.760Z,55.50
2023-04-24T18:29:22.364Z,55.70
2023-04-24T18:31:49.676Z,55.90
2023-04-24T18:34:16.414Z,56.20
2023-04-24T18:36:43.025Z,56.40
2023-04-24T18:39:09.634Z,56.50
2023-04-24T18:41:36.332Z,56.70
2023-04-24T18:44:02.974Z,56.90
2023-04-24T18:46:31.157Z,57.00
2023-04-24T18:48:57.810Z,57.20
2023-04-24T18:51:24.536Z,57.30
2023-04-24T18:53:51.323Z,57.50
2023-04-24T18:56:18.050Z,57.60
2023-04-24T18:58:46.154Z,57.80
2023-04-24T19:01:12.904Z,58.00
2023-04-24T19:03:39.600Z,58.10
2023-04-24T19:06:06.437Z,58.20
2023-04-24T19:08:33.065Z,58.40
2023-04-24T19:10:59.743Z,58.50
2023-04-24T19:13:26.393Z,58.70
2023-04-24T19:15:53.059Z,58.70
2023-04-24T19:18:19.672Z,58.70
2023-04-24T19:20:46.544Z,58.80
2023-04-24T19:23:13.372Z,58.80
2023-04-24T19:25:40.091Z,58.90
2023-04-24T19:28:07.617Z,59.00
2023-04-24T19:30:35.288Z,59.20
2023-04-24T19:33:01.964Z,59.30
2023-04-24T19:35:28.662Z,59.50
2023-04-24T19:37:55.367Z,59.60
2023-04-24T19:40:22.008Z,59.70
2023-04-24T19:42:49.467Z,59.80
2023-04-24T19:45:16.182Z,59.90
2023-04-24T19:47:43.187Z,60.10
2023-04-24T19:50:10.138Z,60.20
2023-04-24T19:52:36.911Z,60.30
2023-04-24T19:55:03.961Z,60.40
2023-04-24T19:57:30.550Z,60.50
2023-04-24T19:59:57.195Z,60.60
2023-04-24T20:02:23.897Z,60.60
2023-04-24T20:04:50.798Z,60.70
2023-04-24T20:07:17.623Z,60.80
2023-04-24T20:09:44.219Z,60.90
2023-04-24T20:12:10.928Z,61.00
2023-04-24T20:14:37.608Z,61.00
2023-04-24T20:17:04.291Z,61.10
2023-04-24T20:19:31.042Z,61.20
2023-04-24T20:21:57.720Z,61.20
2023-04-24T20:24:24.523Z,61.20
2023-04-24T20:26:51.290Z,61.20
2023-04-24T20:29:17.961Z,61.20
2023-04-24T20:31:44.630Z,61.20
2023-04-24T20:34:11.878Z,61.10
2023-04-24T20:36:38.795Z,61.10
2023-04-24T20:39:06.743Z,61.10
2023-04-24T20:41:34.035Z,61.10
2023-04-24T20:44:01.300Z,61.10
2023-04-24T20:46:28.202Z,61.10
2023-04-24T20:48:54.907Z,61.10
2023-04-24T20:51:21.582Z,61.00
2023-04-24T20:53:51.281Z,61.00
2023-04-24T20:56:18.259Z,60.90
2023-04-24T20:58:48.711Z,60.80
2023-04-24T21:01:16.386Z,60.80
2023-04-24T21:03:43.504Z,60.70
2023-04-24T21:06:10.898Z,60.60
2023-04-24T21:08:37.768Z,60.50
2023-04-24T21:11:04.700Z,60.50
2023-04-24T21:13:31.354Z,60.50
2023-04-24T21:15:58.466Z,60.50
2023-04-24T21:18:26.265Z,60.50
2023-04-24T21:20:53.498Z,60.60
2023-04-24T21:23:20.378Z,60.50
2023-04-24T21:25:47.477Z,60.50
2023-04-24T21:28:14.399Z,60.60
2023-04-24T21:30:41.174Z,60.60
2023-04-24T21:33:07.942Z,60.70
2023-04-24T21:35:35.111Z,60.70
2023-04-24T21:38:01.745Z,60.80
2023-04-24T21:40:28.417Z,60.80
2023-04-24T21:42:55.166Z,60.90
2023-04-24T21:45:21.937Z,61.00
2023-04-24T21:47:48.607Z,61.00
2023-04-24T21:50:15.311Z,61.10
2023-04-24T21:52:41.911Z,61.20
2023-04-24T21:55:09.072Z,61.20
2023-04-24T21:57:35.918Z,61.30
2023-04-24T22:00:02.741Z,61.50
2023-04-24T22:02:29.405Z,61.80
2023-04-24T22:04:56.457Z,62.00
2023-04-24T22:07:23.376Z,62.10
2023-04-24T22:09:49.995Z,62.40
2023-04-24T22:12:17.141Z,62.70
2023-04-24T22:14:43.828Z,63.00
2023-04-24T22:17:10.448Z,63.30
2023-04-24T22:19:37.079Z,63.70
2023-04-24T22:22:03.866Z,63.80
2023-04-24T22:24:30.651Z,63.90
2023-04-24T22:26:57.260Z,63.90
2023-04-24T22:29:23.904Z,64.10
2023-04-24T22:31:50.616Z,64.50
2023-04-24T22:34:17.291Z,64.40
2023-04-24T22:36:44.043Z,64.40
2023-04-24T22:39:15.534Z,64.50
2023-04-24T22:41:42.924Z,64.50
2023-04-24T22:44:10.467Z,64.40
2023-04-24T22:46:37.098Z,64.70
2023-04-24T22:49:05.213Z,64.80
2023-04-24T22:51:35.194Z,64.80
2023-04-24T22:54:06.058Z,64.80
2023-04-24T22:56:34.093Z,65.00
2023-04-24T22:59:00.808Z,64.90
2023-04-24T23:01:27.627Z,64.80
2023-04-24T23:03:55.004Z,64.80
2023-04-24T23:06:21.972Z,64.80
2023-04-24T23:08:48.841Z,64.80
2023-04-24T23:11:15.762Z,64.80
2023-04-24T23:13:42.464Z,64.90
2023-04-24T23:16:09.164Z,64.90
2023-04-24T23:18:35.815Z,65.10
2023-04-24T23:21:03.432Z,65.30
2023-04-24T23:23:30.130Z,65.40
2023-04-24T23:25:57.057Z,65.50
2023-04-24T23:28:23.718Z,65.60
2023-04-24T23:30:50.498Z,65.60
2023-04-24T23:33:17.160Z,65.50
2023-04-24T23:35:43.806Z,65.60
2023-04-24T23:38:11.052Z,65.70
2023-04-24T23:40:37.797Z,65.70
2023-04-24T23:43:08.083Z,65.80
2023-04-24T23:45:36.021Z,65.80
2023-04-24T23:48:04.053Z,65.90
2023-04-24T23:50:30.838Z,65.80
2023-04-24T23:52:57.489Z,65.70
2023-04-24T23:55:24.194Z,65.70
2023-04-24T23:57:50.828Z,65.90
